createdAt,value
2022-08-11T00:00:20.321Z,51.02
2022-08-11T00:02:50.241Z,51.08
2022-08-11T00:05:19.189Z,51.10
2022-08-11T00:07:47.616Z,51.22
2022-08-11T00:10:16.390Z,51.11
2022-08-11T00:12:43.061Z,51.12
2022-08-11T00:15:09.453Z,51.06
2022-08-11T00:17:35.679Z,51.08
2022-08-11T00:20:13.794Z,51.16
2022-08-11T00:22:44.857Z,51.17
2022-08-11T00:25:12.328Z,50.99
2022-08-11T00:27:39.667Z,51.12
2022-08-11T00:30:06.957Z,51.18
2022-08-11T00:32:32.769Z,51.00
2022-08-11T00:35:54.744Z,51.04
2022-08-11T00:37:48.956Z,51.11
2022-08-11T00:40:19.909Z,51.14
2022-08-11T00:43:01.120Z,51.17
2022-08-11T00:45:31.063Z,51.12
2022-08-11T00:48:04.545Z,51.05
2022-08-11T00:50:48.752Z,51.17
2022-08-11T00:53:36.373Z,51.17
2022-08-11T00:56:33.073Z,51.20
2022-08-11T00:59:38.502Z,51.20
2022-08-11T01:02:31.203Z,51.40
2022-08-11T01:05:24.445Z,51.21
2022-08-11T01:08:22.794Z,50.97
2022-08-11T01:11:28.217Z,51.17
2022-08-11T01:14:34.705Z,51.10
2022-08-11T01:17:40.257Z,51.26
2022-08-11T01:20:48.073Z,51.33
2022-08-11T01:23:40.400Z,51.35
2022-08-11T01:26:47.105Z,51.31
2022-08-11T01:32:23.328Z,51.12
2022-08-11T01:35:28.758Z,51.16
2022-08-11T01:38:27.316Z,51.27
2022-08-11T01:44:28.759Z,51.31
2022-08-11T01:47:54.722Z,51.25
2022-08-11T01:53:40.039Z,51.19
2022-08-11T02:02:16.639Z,51.37
2022-08-11T02:05:02.835Z,51.20
2022-08-11T02:07:55.607Z,51.27
2022-08-11T02:10:50.757Z,51.36
2022-08-11T02:13:36.606Z,51.31
2022-08-11T02:16:17.053Z,51.20
2022-08-11T02:19:07.797Z,51.25
2022-08-11T02:22:10.054Z,51.33
2022-08-11T02:24:45.137Z,51.23
2022-08-11T02:27:19.059Z,51.29
2022-08-11T02:30:06.537Z,51.32
2022-08-11T02:33:17.715Z,51.31
2022-08-11T02:36:05.840Z,51.33
2022-08-11T02:38:53.367Z,51.50
2022-08-11T02:41:45.617Z,51.30
2022-08-11T02:47:13.697Z,51.27
2022-08-11T02:50:07.659Z,51.35
2022-08-11T02:52:58.807Z,51.35
2022-08-11T02:55:57.514Z,51.36
2022-08-11T02:58:43.703Z,51.29
2022-08-11T03:01:17.733Z,51.31
2022-08-11T03:03:50.550Z,51.38
2022-08-11T03:06:29.915Z,51.32
2022-08-11T03:09:03.666Z,51.38
2022-08-11T03:12:18.150Z,51.36
2022-08-11T03:15:14.983Z,51.42
2022-08-11T03:18:02.275Z,51.41
2022-08-11T03:20:53.358Z,51.29
2022-08-11T03:24:00.741Z,51.43
2022-08-11T03:26:32.521Z,51.17
2022-08-11T03:29:38.186Z,51.31
2022-08-11T03:32:10.718Z,51.38
2022-08-11T03:34:38.617Z,51.24
2022-08-11T03:37:50.153Z,51.34
2022-08-11T03:40:49.993Z,51.45
2022-08-11T03:43:28.871Z,51.48
2022-08-11T03:46:09.981Z,51.49
2022-08-11T03:48:59.510Z,51.35
2022-08-11T03:51:52.098Z,51.40
2022-08-11T03:54:57.851Z,51.29
2022-08-11T04:01:05.247Z,51.35
2022-08-11T04:04:00.788Z,51.25
2022-08-11T04:09:44.110Z,51.47
2022-08-11T04:12:35.988Z,51.47
2022-08-11T04:16:11.975Z,51.26
2022-08-11T04:19:18.129Z,51.47
2022-08-11T04:22:02.977Z,51.35
2022-08-11T04:25:09.659Z,51.32
2022-08-11T04:28:00.443Z,51.38
2022-08-11T04:30:55.885Z,51.49
2022-08-11T04:33:56.422Z,51.48
2022-08-11T04:37:22.576Z,51.25
2022-08-11T04:40:28.010Z,51.38
2022-08-11T04:43:21.837Z,51.32
2022-08-11T04:46:27.274Z,51.29
2022-08-11T04:52:38.085Z,51.23
2022-08-11T04:55:55.333Z,51.34
2022-08-11T04:58:50.001Z,51.47
2022-08-11T05:04:46.721Z,51.37
2022-08-11T05:07:52.760Z,51.30
2022-08-11T05:10:33.676Z,51.24
2022-08-11T05:13:29.486Z,51.36
2022-08-11T05:16:17.813Z,51.29
2022-08-11T05:19:11.862Z,51.40
2022-08-11T05:22:05.623Z,51.24
2022-08-11T05:25:00.348Z,51.11
2022-08-11T05:27:52.550Z,51.00
2022-08-11T05:30:38.369Z,51.33
2022-08-11T05:33:28.781Z,51.38
2022-08-11T05:36:09.485Z,50.32
2022-08-11T05:38:56.181Z,50.91
2022-08-11T05:41:43.902Z,51.33
2022-08-11T05:44:30.177Z,50.40
2022-08-11T05:47:16.428Z,50.89
2022-08-11T05:50:09.065Z,49.46
2022-08-11T05:53:04.599Z,50.32
2022-08-11T05:56:02.186Z,50.66
2022-08-11T05:58:42.315Z,50.40
2022-08-11T06:01:09.952Z,50.32
2022-08-11T06:03:58.198Z,50.31
2022-08-11T06:06:25.594Z,50.48
2022-08-11T06:08:54.542Z,50.64
2022-08-11T06:11:20.321Z,50.78
2022-08-11T06:14:06.946Z,50.09
2022-08-11T06:16:32.912Z,49.79
2022-08-11T06:18:59.381Z,49.72
2022-08-11T06:21:25.377Z,49.50
2022-08-11T06:23:51.713Z,49.17
2022-08-11T06:26:17.537Z,49.62
2022-08-11T06:28:44.603Z,49.15
2022-08-11T06:31:14.668Z,49.33
2022-08-11T06:33:55.422Z,48.67
2022-08-11T06:36:44.386Z,49.28
2022-08-11T06:39:32.528Z,46.93
2022-08-11T06:42:05.670Z,47.11
2022-08-11T06:44:57.417Z,47.64
2022-08-11T06:47:23.777Z,47.62
2022-08-11T06:50:09.598Z,48.24
2022-08-11T06:52:36.926Z,49.70
2022-08-11T06:55:11.330Z,48.77
2022-08-11T06:58:13.611Z,45.81
2022-08-11T07:00:39.792Z,47.36
2022-08-11T07:03:11.630Z,46.99
2022-08-11T07:05:57.821Z,47.23
2022-08-11T07:12:03.321Z,47.13
2022-08-11T07:14:50.385Z,47.35
2022-08-11T07:17:20.188Z,47.26
2022-08-11T07:20:22.153Z,43.90
2022-08-11T07:23:15.333Z,44.83
2022-08-11T07:26:02.012Z,43.07
2022-08-11T07:28:49.290Z,43.59
2022-08-11T07:31:21.337Z,44.80
2022-08-11T07:34:05.052Z,45.14
2022-08-11T07:36:38.900Z,45.25
2022-08-11T07:39:08.811Z,45.00
2022-08-11T07:41:34.558Z,45.36
2022-08-11T07:44:08.218Z,45.46
2022-08-11T07:46:58.861Z,45.61
2022-08-11T07:49:47.897Z,45.56
2022-08-11T07:52:29.603Z,46.02
2022-08-11T07:54:58.554Z,46.20
2022-08-11T07:58:14.251Z,46.59
2022-08-11T08:01:01.861Z,47.07
2022-08-11T08:03:54.150Z,46.88
2022-08-11T08:06:40.951Z,47.19
2022-08-11T08:09:27.488Z,47.35
2022-08-11T08:12:14.012Z,47.57
2022-08-11T08:15:01.179Z,47.49
2022-08-11T08:18:09.190Z,47.18
2022-08-11T08:20:40.381Z,47.35
2022-08-11T08:23:06.905Z,46.93
2022-08-11T08:25:34.731Z,47.42
2022-08-11T08:28:01.894Z,47.24
2022-08-11T08:30:48.187Z,46.78
2022-08-11T08:33:20.522Z,47.13
2022-08-11T08:35:54.550Z,47.82
2022-08-11T08:38:25.100Z,46.98
2022-08-11T08:40:51.797Z,47.95
2022-08-11T08:43:17.646Z,48.69
2022-08-11T08:45:43.968Z,48.46
2022-08-11T08:48:14.366Z,47.38
2022-08-11T08:51:08.036Z,47.98
2022-08-11T08:53:35.649Z,46.74
2022-08-11T08:56:02.208Z,46.84
2022-08-11T08:58:28.832Z,46.65
2022-08-11T09:00:55.890Z,47.14
2022-08-11T09:04:04.142Z,48.12
2022-08-11T09:06:07.545Z,47.00
2022-08-11T09:08:34.396Z,48.31
2022-08-11T09:11:21.499Z,47.94
2022-08-11T09:14:04.963Z,48.32
2022-08-11T09:16:32.528Z,47.60
2022-08-11T09:18:59.565Z,47.89
2022-08-11T09:21:34.209Z,42.89
2022-08-11T09:24:31.580Z,44.18
2022-08-11T09:26:58.554Z,45.39
2022-08-11T09:29:26.449Z,44.94
2022-08-11T09:31:52.682Z,46.06
2022-08-11T09:34:18.561Z,45.46
2022-08-11T09:37:04.477Z,46.92
2022-08-11T09:39:51.241Z,46.29
2022-08-11T09:42:23.123Z,47.81
2022-08-11T09:44:50.646Z,47.02
2022-08-11T09:47:20.081Z,46.21
2022-08-11T09:49:48.041Z,47.79
2022-08-11T09:52:14.522Z,47.71
2022-08-11T09:54:41.420Z,46.53
2022-08-11T09:57:27.168Z,47.76
2022-08-11T09:59:53.189Z,47.80
2022-08-11T10:02:42.809Z,47.41
2022-08-11T10:05:29.520Z,47.95
2022-08-11T10:07:56.287Z,47.07
2022-08-11T10:10:22.128Z,47.72
2022-08-11T10:13:44.126Z,47.95
2022-08-11T10:16:00.175Z,46.85
2022-08-11T10:18:41.403Z,46.89
2022-08-11T10:21:28.621Z,46.95
2022-08-11T10:24:18.175Z,46.91
2022-08-11T10:26:53.680Z,47.67
2022-08-11T10:29:45.115Z,46.58
2022-08-11T10:32:46.390Z,46.77
2022-08-11T10:35:27.024Z,47.83
2022-08-11T10:38:08.463Z,47.93
2022-08-11T10:40:37.137Z,48.11
2022-08-11T10:43:04.661Z,48.20
2022-08-11T10:45:55.821Z,48.31
2022-08-11T10:48:23.092Z,47.78
2022-08-11T10:51:09.808Z,47.62
2022-08-11T10:53:57.780Z,46.75
2022-08-11T10:56:43.937Z,46.35
2022-08-11T10:59:09.832Z,48.21
2022-08-11T11:01:39.375Z,46.06
2022-08-11T11:04:11.156Z,47.35
2022-08-11T11:07:02.921Z,47.98
2022-08-11T11:09:31.528Z,48.14
2022-08-11T11:12:23.025Z,48.08
2022-08-11T11:15:17.503Z,46.33
2022-08-11T11:18:03.855Z,45.74
2022-08-11T11:20:49.825Z,42.89
2022-08-11T11:23:26.449Z,40.98
2022-08-11T11:26:27.083Z,42.30
2022-08-11T11:29:24.425Z,42.48
2022-08-11T11:32:08.933Z,43.68
2022-08-11T11:35:01.444Z,45.11
2022-08-11T11:37:32.203Z,44.39
2022-08-11T11:39:59.472Z,44.17
2022-08-11T11:42:25.692Z,44.89
2022-08-11T11:44:55.577Z,44.86
2022-08-11T11:47:22.151Z,44.60
2022-08-11T11:49:48.844Z,45.93
2022-08-11T11:52:18.202Z,45.29
2022-08-11T11:54:45.376Z,46.75
2022-08-11T11:57:31.415Z,46.84
2022-08-11T12:00:17.036Z,46.62
2022-08-11T12:02:42.865Z,47.26
2022-08-11T12:05:09.540Z,47.36
2022-08-11T12:08:04.953Z,47.08
2022-08-11T12:10:40.465Z,46.93
2022-08-11T12:13:26.095Z,44.87
2022-08-11T12:16:31.566Z,47.08
2022-08-11T12:18:39.424Z,46.97
2022-08-11T12:21:06.721Z,45.28
2022-08-11T12:23:54.260Z,46.57
2022-08-11T12:26:39.988Z,46.88
2022-08-11T12:29:07.277Z,46.36
2022-08-11T12:31:33.980Z,45.68
2022-08-11T12:34:02.837Z,45.98
2022-08-11T12:36:30.161Z,46.80
2022-08-11T12:38:55.871Z,47.26
2022-08-11T12:41:42.024Z,47.20
2022-08-11T12:44:30.185Z,46.51
2022-08-11T12:46:58.976Z,46.26
2022-08-11T12:49:46.491Z,45.62
2022-08-11T12:52:19.730Z,47.06
2022-08-11T12:55:13.155Z,44.49
2022-08-11T12:58:02.574Z,47.19
2022-08-11T13:00:49.340Z,45.00
2022-08-11T13:03:38.829Z,44.47
2022-08-11T13:06:05.148Z,46.80
2022-08-11T13:08:36.459Z,46.26
2022-08-11T13:11:22.817Z,47.43
2022-08-11T13:13:53.698Z,47.39
2022-08-11T13:16:28.801Z,44.89
2022-08-11T13:18:56.073Z,44.86
2022-08-11T13:21:22.334Z,43.34
2022-08-11T13:23:59.754Z,43.03
2022-08-11T13:26:47.829Z,45.26
2022-08-11T13:29:21.843Z,43.43
2022-08-11T13:31:47.847Z,42.73
2022-08-11T13:34:15.313Z,42.09
2022-08-11T13:36:41.603Z,41.71
2022-08-11T13:39:08.604Z,41.67
2022-08-11T13:41:38.337Z,41.35
2022-08-11T13:44:06.378Z,43.29
2022-08-11T13:46:32.950Z,45.89
2022-08-11T13:49:01.339Z,46.42
2022-08-11T13:51:34.768Z,42.63
2022-08-11T13:54:04.882Z,42.63
2022-08-11T13:56:31.959Z,42.54
2022-08-11T13:58:58.814Z,42.34
2022-08-11T14:02:21.285Z,42.53
2022-08-11T14:04:30.358Z,43.27
2022-08-11T14:06:59.885Z,43.29
2022-08-11T14:09:27.584Z,43.44
2022-08-11T14:12:20.479Z,43.82
2022-08-11T14:14:52.438Z,43.00
2022-08-11T14:17:35.971Z,42.44
2022-08-11T14:20:39.393Z,44.02
2022-08-11T14:22:52.025Z,43.95
2022-08-11T14:25:17.979Z,42.46
2022-08-11T14:28:31.781Z,42.02
2022-08-11T14:30:49.527Z,42.22
2022-08-11T14:33:16.775Z,42.67
2022-08-11T14:35:44.535Z,42.41
2022-08-11T14:38:15.893Z,42.40
2022-08-11T14:41:02.973Z,42.42
2022-08-11T14:44:12.344Z,45.00
2022-08-11T14:46:54.709Z,46.56
2022-08-11T14:49:21.197Z,46.89
2022-08-11T14:51:47.702Z,46.99
2022-08-11T14:54:34.509Z,47.08
2022-08-11T14:57:02.368Z,47.18
2022-08-11T14:59:28.633Z,47.32
2022-08-11T15:02:14.258Z,47.25
2022-08-11T15:04:40.075Z,47.42
2022-08-11T15:07:16.301Z,47.42
2022-08-11T15:10:09.843Z,47.56
2022-08-11T15:12:31.585Z,47.50
2022-08-11T15:15:19.333Z,47.61
2022-08-11T15:17:45.348Z,47.75
2022-08-11T15:20:36.202Z,47.77
2022-08-11T15:23:22.688Z,47.75
2022-08-11T15:25:54.762Z,47.82
2022-08-11T15:28:41.169Z,47.77
2022-08-11T15:31:26.957Z,47.84
2022-08-11T15:34:23.385Z,47.81
2022-08-11T15:37:10.165Z,47.92
2022-08-11T15:40:03.945Z,47.96
2022-08-11T15:42:50.183Z,47.75
2022-08-11T15:45:40.196Z,47.69
2022-08-11T15:48:10.579Z,47.77
2022-08-11T15:50:39.743Z,47.80
2022-08-11T15:53:11.567Z,48.02
2022-08-11T15:55:38.452Z,48.04
2022-08-11T15:58:27.139Z,47.97
2022-08-11T16:01:14.078Z,48.10
2022-08-11T16:04:16.213Z,47.97
2022-08-11T16:07:02.810Z,47.85
2022-08-11T16:09:46.994Z,48.13
2022-08-11T16:12:20.505Z,48.14
2022-08-11T16:15:08.781Z,47.68
2022-08-11T16:17:38.340Z,48.23
2022-08-11T16:20:04.898Z,47.50
2022-08-11T16:22:43.156Z,48.03
2022-08-11T16:27:01.456Z,48.01
2022-08-11T16:28:13.162Z,47.96
2022-08-11T16:30:43.025Z,48.20
2022-08-11T16:33:34.078Z,48.12
2022-08-11T16:36:15.022Z,48.04
2022-08-11T16:38:41.257Z,48.10
2022-08-11T16:41:11.685Z,48.03
2022-08-11T16:44:00.693Z,48.14
2022-08-11T16:46:46.544Z,48.20
2022-08-11T16:49:17.609Z,48.20
2022-08-11T16:51:44.269Z,48.32
2022-08-11T16:54:09.984Z,47.93
2022-08-11T16:56:41.129Z,48.24
2022-08-11T16:59:17.721Z,48.36
2022-08-11T17:01:49.069Z,48.18
2022-08-11T17:04:40.557Z,48.09
2022-08-11T17:07:50.055Z,48.28
2022-08-11T17:10:50.765Z,48.01
2022-08-11T17:13:21.977Z,48.38
2022-08-11T17:16:09.610Z,48.37
2022-08-11T17:18:44.515Z,48.26
2022-08-11T17:21:20.130Z,48.22
2022-08-11T17:23:51.328Z,48.18
2022-08-11T17:26:21.427Z,48.22
2022-08-11T17:28:50.753Z,48.23
2022-08-11T17:31:38.027Z,48.11
2022-08-11T17:34:25.760Z,48.23
2022-08-11T17:36:53.039Z,48.38
2022-08-11T17:39:19.360Z,48.21
2022-08-11T17:42:05.187Z,47.76
2022-08-11T17:44:52.310Z,48.36
2022-08-11T17:47:38.966Z,48.26
2022-08-11T17:50:09.334Z,48.35
2022-08-11T17:53:04.386Z,48.27
2022-08-11T17:55:53.399Z,48.38
2022-08-11T17:58:40.069Z,48.38
2022-08-11T18:01:09.538Z,48.18
2022-08-11T18:03:38.597Z,48.43
2022-08-11T18:06:05.936Z,47.67
2022-08-11T18:08:52.877Z,47.95
2022-08-11T18:12:10.047Z,48.39
2022-08-11T18:14:47.714Z,48.33
2022-08-11T18:17:33.245Z,48.29
2022-08-11T18:20:18.781Z,48.31
2022-08-11T18:23:06.571Z,48.37
2022-08-11T18:25:53.046Z,48.41
2022-08-11T18:28:44.036Z,48.39
2022-08-11T18:31:32.745Z,48.40
2022-08-11T18:34:21.492Z,48.49
2022-08-11T18:37:19.511Z,48.47
2022-08-11T18:40:13.394Z,48.29
2022-08-11T18:43:01.038Z,48.44
2022-08-11T18:45:46.629Z,48.46
2022-08-11T18:48:40.281Z,48.36
2022-08-11T18:51:36.156Z,48.44
2022-08-11T18:54:26.280Z,48.40
2022-08-11T18:57:12.426Z,48.38
2022-08-11T18:59:59.709Z,48.49
2022-08-11T19:02:49.627Z,48.43
2022-08-11T19:06:06.051Z,48.46
2022-08-11T19:08:48.310Z,48.37
2022-08-11T19:11:34.132Z,48.65
2022-08-11T19:14:21.364Z,48.59
2022-08-11T19:17:08.288Z,48.35
2022-08-11T19:19:55.364Z,48.54
2022-08-11T19:22:41.709Z,48.43
2022-08-11T19:25:27.947Z,48.49
2022-08-11T19:28:16.321Z,48.65
2022-08-11T19:31:02.081Z,48.53
2022-08-11T19:34:02.997Z,48.72
2022-08-11T19:36:54.423Z,48.41
2022-08-11T19:39:40.981Z,48.73
2022-08-11T19:42:27.366Z,48.62
2022-08-11T19:45:14.030Z,48.73
2022-08-11T19:48:28.045Z,48.66
2022-08-11T19:51:06.405Z,48.75
2022-08-11T19:53:52.406Z,48.58
2022-08-11T19:56:38.104Z,48.64
2022-08-11T19:59:23.758Z,48.77
2022-08-11T20:02:13.593Z,48.61
2022-08-11T20:05:00.743Z,48.62
2022-08-11T20:07:47.307Z,48.64
2022-08-11T20:10:36.689Z,48.82
2022-08-11T20:13:22.774Z,48.64
2022-08-11T20:16:12.918Z,48.68
2022-08-11T20:18:58.925Z,48.96
2022-08-11T20:21:45.402Z,48.66
2022-08-11T20:24:32.166Z,48.66
2022-08-11T20:27:19.030Z,48.82
2022-08-11T20:30:12.111Z,48.66
2022-08-11T20:32:58.850Z,48.73
2022-08-11T20:35:44.667Z,48.52
2022-08-11T20:38:30.910Z,48.75
2022-08-11T20:41:16.854Z,48.72
2022-08-11T20:44:06.286Z,48.82
2022-08-11T20:46:57.286Z,48.74
2022-08-11T20:49:52.608Z,48.73
2022-08-11T20:52:47.554Z,48.95
2022-08-11T20:55:51.838Z,48.73
2022-08-11T21:01:46.465Z,48.95
2022-08-11T21:04:32.850Z,48.78
2022-08-11T21:07:28.129Z,48.89
2022-08-11T21:10:23.736Z,48.80
2022-08-11T21:13:25.618Z,48.73
2022-08-11T21:16:26.558Z,48.92
2022-08-11T21:19:18.210Z,48.78
2022-08-11T21:22:04.098Z,48.76
2022-08-11T21:24:51.782Z,48.76
2022-08-11T21:27:38.963Z,48.90
2022-08-11T21:30:25.018Z,49.00
2022-08-11T21:33:10.865Z,48.78
2022-08-11T21:35:56.774Z,48.86
2022-08-11T21:38:42.380Z,48.91
2022-08-11T21:41:29.611Z,48.83
2022-08-11T21:44:15.762Z,49.02
2022-08-11T21:47:01.327Z,48.76
2022-08-11T21:49:48.855Z,48.98
2022-08-11T21:52:35.242Z,48.80
2022-08-11T21:55:21.083Z,48.94
2022-08-11T21:58:07.067Z,49.08
2022-08-11T22:00:52.767Z,48.85
2022-08-11T22:03:49.358Z,48.98
2022-08-11T22:06:36.469Z,48.87
2022-08-11T22:09:22.464Z,49.07
2022-08-11T22:12:34.035Z,49.00
2022-08-11T22:15:14.482Z,49.02
2022-08-11T22:18:00.023Z,49.02
2022-08-11T22:20:46.460Z,48.89
2022-08-11T22:23:36.067Z,48.89
2022-08-11T22:26:23.259Z,48.89
2022-08-11T22:29:09.886Z,49.09
2022-08-11T22:31:57.035Z,49.18
2022-08-11T22:34:51.797Z,49.13
2022-08-11T22:37:40.114Z,49.04
2022-08-11T22:40:27.480Z,48.95
2022-08-11T22:43:13.021Z,48.94
2022-08-11T22:45:58.602Z,49.07
2022-08-11T22:48:45.640Z,48.99
2022-08-11T22:51:32.226Z,49.03
2022-08-11T22:54:21.139Z,49.10
2022-08-11T22:57:07.246Z,49.17
2022-08-11T22:59:54.910Z,49.09
2022-08-11T23:02:40.768Z,49.09
2022-08-11T23:05:27.782Z,49.18
2022-08-11T23:08:14.975Z,49.04
2022-08-11T23:11:00.905Z,49.11
2022-08-11T23:13:48.543Z,49.10
2022-08-11T23:16:34.312Z,49.25
2022-08-11T23:20:04.781Z,48.87
2022-08-11T23:22:37.734Z,49.19
2022-08-11T23:25:31.329Z,49.30
2022-08-11T23:28:18.151Z,49.19
2022-08-11T23:31:04.173Z,49.18
2022-08-11T23:33:50.622Z,49.25
2022-08-11T23:36:47.339Z,49.02
2022-08-11T23:39:34.343Z,49.15
2022-08-11T23:42:21.225Z,49.13
2022-08-11T23:45:09.502Z,49.22
2022-08-11T23:47:56.025Z,49.28
2022-08-11T23:50:42.356Z,49.27
2022-08-11T23:53:28.348Z,49.18
2022-08-11T23:56:14.152Z,49.19
2022-08-11T23:58:59.917Z,49.10
